Time;durP1;ratioP1;P1;durP2;ratioP2;P2;SDS_P1;SDS_P2;PMS_P1;PMS_P2;Temp;Humidity;BMP_temperature;BMP_pressure;BME280_temperature;BME280_humidity;BME280_pressure;Samples;Min_cycle;Max_cycle;Signal;HPM_P1;HPM_P2
2021/12/13 00:00:15;;;;;;;;;;;11.20;94.10;;;;;;5036630;28;20037;-84
2021/12/13 00:02:46;;;;;;;;;;;11.30;94.20;;;;;;5031762;28;19913;-84
2021/12/13 00:05:15;;;;;;;;;;;11.20;94.20;;;;;;5037015;28;19952;-84
2021/12/13 00:07:42;;;;;;;;;;;11.20;94.30;;;;;;5036356;28;19963;-83
2021/12/13 00:10:17;;;;;;;;;;;11.20;94.30;;;;;;5037028;28;19909;-84
2021/12/13 00:12:44;;;;;;;;;;;11.20;94.30;;;;;;5036415;28;19905;-84
2021/12/13 00:15:14;;;;;;;;;;;11.20;94.30;;;;;;5035721;28;19913;-84
2021/12/13 00:17:43;;;;;;;;;;;11.10;94.30;;;;;;5036385;28;20284;-84
2021/12/13 00:20:15;;;;;;;;;;;11.10;94.30;;;;;;5037061;28;19948;-84
2021/12/13 00:22:46;;;;;;;;;;;11.10;94.30;;;;;;5035535;28;19912;-84
2021/12/13 00:25:17;;;;;;;;;;;11.10;94.30;;;;;;5036862;28;19909;-84
2021/12/13 00:27:46;;;;;;;;;;;11.10;94.40;;;;;;5036425;28;19909;-84
2021/12/13 00:30:11;;;;;;;;;;;11.10;94.50;;;;;;5036075;28;19909;-84
2021/12/13 00:32:40;;;;;;;;;;;11.10;94.60;;;;;;5036398;28;19912;-84
2021/12/13 00:35:08;;;;;;;;;;;11.10;94.70;;;;;;5036418;28;19909;-85
2021/12/13 00:37:37;;;;;;;;;;;11.10;94.90;;;;;;5036724;28;20011;-84
2021/12/13 00:40:06;;;;;;;;;;;11.10;95.00;;;;;;5036707;28;19972;-84
2021/12/13 00:42:36;;;;;;;;;;;11.10;95.00;;;;;;5038870;28;19959;-84
2021/12/13 00:45:06;;;;;;;;;;;11.10;95.10;;;;;;5039953;28;20343;-84
2021/12/13 00:47:33;;;;;;;;;;;11.10;95.10;;;;;;5031551;28;19909;-84
2021/12/13 00:50:13;;;;;;;;;;;11.10;95.10;;;;;;5038174;28;19905;-84
2021/12/13 00:52:41;;;;;;;;;;;11.10;95.10;;;;;;5040236;28;19920;-84
2021/12/13 00:55:18;;;;;;;;;;;11.10;95.10;;;;;;5040430;28;19908;-84
2021/12/13 00:57:45;;;;;;;;;;;11.10;95.20;;;;;;5039619;28;19963;-84
2021/12/13 01:00:28;;;;;;;;;;;11.10;95.30;;;;;;5039885;28;19913;-84
2021/12/13 01:02:58;;;;;;;;;;;11.00;95.20;;;;;;5039763;28;19909;-84
2021/12/13 01:05:26;;;;;;;;;;;11.00;95.20;;;;;;5038860;28;19916;-84
2021/12/13 01:08:07;;;;;;;;;;;11.00;95.30;;;;;;5037740;28;20364;-84
2021/12/13 01:10:38;;;;;;;;;;;11.00;95.30;;;;;;5039514;28;20006;-84
2021/12/13 01:13:11;;;;;;;;;;;11.00;95.30;;;;;;5040067;28;19905;-84
2021/12/13 01:15:43;;;;;;;;;;;11.00;95.40;;;;;;5039232;28;19909;-84
2021/12/13 01:20:59;;;;;;;;;;;11.00;95.50;;;;;;5039752;28;19905;-84
2021/12/13 01:23:41;;;;;;;;;;;10.90;95.50;;;;;;5039250;28;19932;-84
2021/12/13 01:26:28;;;;;;;;;;;10.90;95.50;;;;;;5039955;28;19927;-85
2021/12/13 01:28:59;;;;;;;;;;;10.90;95.60;;;;;;5039117;28;19959;-85
2021/12/13 01:31:38;;;;;;;;;;;10.90;95.60;;;;;;5039193;28;19913;-85
2021/12/13 01:34:06;;;;;;;;;;;10.90;95.60;;;;;;5038924;28;19963;-84
2021/12/13 01:36:40;;;;;;;;;;;10.80;95.70;;;;;;5039232;28;19916;-84
2021/12/13 01:39:09;;;;;;;;;;;10.80;95.60;;;;;;5038649;28;19909;-84
2021/12/13 01:41:40;;;;;;;;;;;10.80;95.70;;;;;;5037298;28;20346;-84
2021/12/13 01:44:08;;;;;;;;;;;10.80;95.80;;;;;;5039099;28;19990;-84
2021/12/13 01:46:36;;;;;;;;;;;10.80;95.90;;;;;;5037975;28;19931;-84
2021/12/13 01:49:02;;;;;;;;;;;10.80;96.10;;;;;;5037689;28;19927;-84
2021/12/13 01:51:33;;;;;;;;;;;10.80;96.10;;;;;;5039184;28;19975;-84
2021/12/13 01:54:00;;;;;;;;;;;10.80;96.20;;;;;;5037435;28;19959;-84
2021/12/13 01:56:59;;;;;;;;;;;10.80;96.30;;;;;;5036883;28;19905;-84
2021/12/13 02:02:09;;;;;;;;;;;10.80;96.30;;;;;;5038301;28;19909;-85
2021/12/13 02:04:35;;;;;;;;;;;10.80;96.40;;;;;;5037726;28;19905;-85
2021/12/13 02:07:02;;;;;;;;;;;10.70;96.40;;;;;;5039200;28;19909;-85
2021/12/13 02:09:36;;;;;;;;;;;10.70;96.50;;;;;;5037034;28;19912;-85
2021/12/13 02:12:05;;;;;;;;;;;10.70;96.60;;;;;;5038545;28;19948;-85
2021/12/13 02:14:33;;;;;;;;;;;10.70;96.60;;;;;;5039025;28;19911;-84
2021/12/13 02:17:08;;;;;;;;;;;10.80;96.60;;;;;;5038554;28;20047;-84
2021/12/13 02:19:37;;;;;;;;;;;10.70;96.60;;;;;;5038614;28;19951;-84
2021/12/13 02:22:22;;;;;;;;;;;10.70;96.60;;;;;;5038742;28;20355;-84
2021/12/13 02:24:48;;;;;;;;;;;10.80;96.60;;;;;;5038703;28;20007;-84
2021/12/13 02:27:14;;;;;;;;;;;10.80;96.50;;;;;;5038707;28;19905;-84
2021/12/13 02:29:42;;;;;;;;;;;10.80;96.70;;;;;;5038168;28;19923;-84
2021/12/13 02:32:09;;;;;;;;;;;10.80;96.80;;;;;;5038113;28;19931;-84
2021/12/13 02:34:37;;;;;;;;;;;10.80;96.90;;;;;;5038608;28;19905;-84
2021/12/13 02:37:04;;;;;;;;;;;10.80;96.90;;;;;;5038452;28;19944;-84
2021/12/13 02:39:32;;;;;;;;;;;10.80;97.00;;;;;;5037897;28;19967;-84
2021/12/13 02:42:00;;;;;;;;;;;10.80;97.00;;;;;;5038328;28;19905;-84
2021/12/13 02:44:30;;;;;;;;;;;10.70;97.00;;;;;;5037157;28;19906;-84
2021/12/13 02:46:58;;;;;;;;;;;10.80;97.10;;;;;;5034663;28;20353;-85
2021/12/13 02:49:23;;;;;;;;;;;10.70;97.20;;;;;;5036122;28;19916;-85
2021/12/13 02:51:57;;;;;;;;;;;10.70;97.30;;;;;;5037954;28;19909;-85
2021/12/13 02:54:38;;;;;;;;;;;10.70;97.30;;;;;;5037827;28;19909;-85
2021/12/13 02:57:08;;;;;;;;;;;10.70;97.40;;;;;;5038372;28;20291;-85
2021/12/13 02:59:35;;;;;;;;;;;10.70;97.40;;;;;;5037613;28;19909;-85
2021/12/13 03:02:11;;;;;;;;;;;10.80;97.60;;;;;;5037971;28;19916;-84
2021/12/13 03:04:37;;;;;;;;;;;10.80;97.60;;;;;;5037701;28;19905;-84
2021/12/13 03:07:09;;;;;;;;;;;10.80;97.60;;;;;;5038095;28;19905;-84
2021/12/13 03:09:37;;;;;;;;;;;10.80;97.80;;;;;;5037350;28;20352;-84
2021/12/13 03:12:05;;;;;;;;;;;10.80;97.70;;;;;;5037675;28;19913;-84
2021/12/13 03:14:32;;;;;;;;;;;10.80;97.70;;;;;;5037777;28;20008;-84
2021/12/13 03:17:02;;;;;;;;;;;10.80;97.70;;;;;;5037782;28;19905;-84
2021/12/13 03:19:40;;;;;;;;;;;10.80;97.70;;;;;;5035138;28;19979;-84
2021/12/13 03:22:09;;;;;;;;;;;10.80;97.70;;;;;;5036222;28;19905;-84
2021/12/13 03:24:34;;;;;;;;;;;10.80;97.70;;;;;;5027240;28;19912;-85
2021/12/13 03:27:19;;;;;;;;;;;10.80;97.70;;;;;;5037732;28;19908;-84
2021/12/13 03:29:58;;;;;;;;;;;10.80;97.80;;;;;;5037630;28;19905;-85
2021/12/13 03:32:24;;;;;;;;;;;10.80;97.90;;;;;;5037665;28;20006;-84
2021/12/13 03:35:05;;;;;;;;;;;10.80;97.80;;;;;;5037078;28;19913;-85
2021/12/13 03:37:31;;;;;;;;;;;10.80;97.70;;;;;;5050575;28;20248;-85
2021/12/13 03:39:59;;;;;;;;;;;10.80;97.80;;;;;;5042046;28;19923;-84
2021/12/13 03:42:36;;;;;;;;;;;10.80;97.80;;;;;;5037510;28;19955;-84
2021/12/13 03:45:08;;;;;;;;;;;10.80;97.80;;;;;;5037257;28;19912;-84
2021/12/13 03:47:37;;;;;;;;;;;10.80;97.80;;;;;;5036241;28;19905;-84
2021/12/13 03:50:11;;;;;;;;;;;10.80;97.80;;;;;;5037458;28;20007;-84
2021/12/13 03:52:39;;;;;;;;;;;10.80;97.80;;;;;;5037600;28;19908;-85
2021/12/13 03:55:06;;;;;;;;;;;10.80;97.80;;;;;;5037200;28;19916;-85
2021/12/13 03:57:32;;;;;;;;;;;10.80;97.80;;;;;;5037583;28;19905;-85
2021/12/13 03:59:58;;;;;;;;;;;10.80;97.80;;;;;;5037206;28;19912;-85
2021/12/13 04:02:26;;;;;;;;;;;10.80;97.80;;;;;;5037663;28;19905;-84
2021/12/13 04:04:53;;;;;;;;;;;10.80;97.80;;;;;;5037414;28;19927;-85
2021/12/13 04:07:23;;;;;;;;;;;10.80;97.80;;;;;;5037584;28;20747;-85
2021/12/13 04:09:50;;;;;;;;;;;10.80;97.80;;;;;;5037232;28;19955;-85
2021/12/13 04:12:17;;;;;;;;;;;10.80;97.80;;;;;;5037295;28;19909;-85
2021/12/13 04:14:47;;;;;;;;;;;10.80;97.80;;;;;;5037255;28;19905;-85
2021/12/13 04:20:21;;;;;;;;;;;10.80;97.80;;;;;;5020990;28;20337;-85
2021/12/13 04:22:50;;;;;;;;;;;10.80;97.70;;;;;;5041107;28;19959;-86
2021/12/13 04:25:17;;;;;;;;;;;10.80;97.70;;;;;;5040661;28;19917;-86
2021/12/13 04:27:53;;;;;;;;;;;10.80;97.70;;;;;;5040886;28;19935;-86
2021/12/13 04:30:31;;;;;;;;;;;10.80;97.60;;;;;;5040529;28;19952;-85
2021/12/13 04:32:59;;;;;;;;;;;10.80;97.60;;;;;;5040899;28;19909;-85
2021/12/13 04:35:26;;;;;;;;;;;10.80;97.60;;;;;;5040770;28;20279;-85
2021/12/13 04:37:54;;;;;;;;;;;10.80;97.60;;;;;;5040937;28;19905;-85
2021/12/13 04:40:22;;;;;;;;;;;10.80;97.60;;;;;;5040403;28;19917;-85
2021/12/13 04:42:49;;;;;;;;;;;10.80;97.50;;;;;;5040399;28;19905;-85
2021/12/13 04:45:19;;;;;;;;;;;10.80;97.50;;;;;;5040447;28;19975;-85
2021/12/13 04:47:57;;;;;;;;;;;10.80;97.50;;;;;;5030527;28;19906;-85
2021/12/13 04:50:28;;;;;;;;;;;10.80;97.50;;;;;;5028909;28;19984;-85
2021/12/13 04:52:54;;;;;;;;;;;10.70;97.40;;;;;;5039110;28;19911;-85
2021/12/13 04:55:46;;;;;;;;;;;10.70;97.40;;;;;;5040435;28;19996;-85
2021/12/13 04:58:12;;;;;;;;;;;10.70;97.40;;;;;;5039143;28;19905;-85
2021/12/13 05:00:41;;;;;;;;;;;10.70;97.40;;;;;;5040182;28;19905;-85
2021/12/13 05:03:08;;;;;;;;;;;10.70;97.40;;;;;;5040247;28;19927;-85
2021/12/13 05:05:35;;;;;;;;;;;10.70;97.30;;;;;;5038992;28;20005;-85
2021/12/13 05:08:01;;;;;;;;;;;10.60;97.50;;;;;;5040268;28;19948;-85
2021/12/13 05:10:29;;;;;;;;;;;10.60;97.20;;;;;;5039912;28;19905;-85
2021/12/13 05:12:58;;;;;;;;;;;10.60;97.20;;;;;;5039906;28;19958;-85
2021/12/13 05:15:25;;;;;;;;;;;10.60;97.10;;;;;;5039886;28;19905;-84
2021/12/13 05:17:51;;;;;;;;;;;10.60;97.10;;;;;;5040201;28;19944;-85
2021/12/13 05:20:20;;;;;;;;;;;10.60;97.10;;;;;;5039857;28;19948;-84
2021/12/13 05:22:48;;;;;;;;;;;10.60;97.10;;;;;;5040042;28;19996;-85
2021/12/13 05:25:19;;;;;;;;;;;10.50;97.00;;;;;;5039692;28;20046;-84
2021/12/13 05:27:46;;;;;;;;;;;10.50;96.90;;;;;;5039752;28;19905;-84
2021/12/13 05:30:23;;;;;;;;;;;10.50;96.80;;;;;;5039556;28;19915;-84
2021/12/13 05:32:55;;;;;;;;;;;10.50;96.70;;;;;;5039828;28;20015;-84
2021/12/13 05:35:26;;;;;;;;;;;10.40;96.60;;;;;;5039731;28;19909;-84
2021/12/13 05:37:53;;;;;;;;;;;10.40;96.60;;;;;;5039790;28;19905;-85
2021/12/13 05:40:32;;;;;;;;;;;10.40;96.60;;;;;;5039308;28;19956;-85
2021/12/13 05:42:59;;;;;;;;;;;10.40;96.60;;;;;;5039725;28;19909;-85
2021/12/13 05:45:51;;;;;;;;;;;10.40;96.50;;;;;;5038058;28;19905;-85
2021/12/13 05:48:19;;;;;;;;;;;10.40;96.50;;;;;;5028896;28;19912;-83
2021/12/13 05:50:47;;;;;;;;;;;10.30;96.50;;;;;;5039438;28;19908;-84
2021/12/13 05:53:16;;;;;;;;;;;10.30;96.50;;;;;;5039254;28;19911;-86
2021/12/13 05:56:05;;;;;;;;;;;10.30;96.50;;;;;;5039297;28;19911;-85
2021/12/13 05:58:46;;;;;;;;;;;10.30;96.50;;;;;;5036085;28;19916;-85
2021/12/13 06:01:24;;;;;;;;;;;10.30;96.50;;;;;;5038858;28;19909;-84
2021/12/13 06:04:07;;;;;;;;;;;10.30;96.50;;;;;;5039224;28;19911;-82
2021/12/13 06:06:44;;;;;;;;;;;10.20;96.50;;;;;;5039351;28;19912;-79
2021/12/13 06:09:10;;;;;;;;;;;10.20;96.50;;;;;;5038844;28;19959;-81
2021/12/13 06:11:38;;;;;;;;;;;10.20;96.50;;;;;;5039053;28;19913;-76
2021/12/13 06:14:15;;;;;;;;;;;10.20;96.50;;;;;;5038726;28;20399;-76
2021/12/13 06:16:47;;;;;;;;;;;10.20;96.60;;;;;;5036274;28;19909;-74
2021/12/13 06:19:28;;;;;;;;;;;10.20;96.60;;;;;;5035087;28;19912;-75
2021/12/13 06:22:03;;;;;;;;;;;10.20;96.60;;;;;;5030826;28;19916;-79
2021/12/13 06:24:41;;;;;;;;;;;10.20;96.60;;;;;;5035194;28;19913;-79
2021/12/13 06:27:21;;;;;;;;;;;10.20;96.70;;;;;;5025643;28;19905;-78
2021/12/13 06:30:03;;;;;;;;;;;10.10;96.60;;;;;;5034541;28;19905;-81
2021/12/13 06:32:31;;;;;;;;;;;10.10;96.60;;;;;;5038550;28;19920;-83
2021/12/13 06:34:59;;;;;;;;;;;10.20;96.60;;;;;;5037207;28;19905;-79
2021/12/13 06:37:35;;;;;;;;;;;10.10;96.50;;;;;;5039069;28;19912;-78
2021/12/13 06:40:13;;;;;;;;;;;10.10;96.50;;;;;;5037895;28;20395;-80
2021/12/13 06:42:38;;;;;;;;;;;10.10;96.40;;;;;;5038322;28;19909;-80
2021/12/13 06:45:16;;;;;;;;;;;10.10;96.40;;;;;;5038431;28;19912;-79
2021/12/13 06:47:46;;;;;;;;;;;10.10;96.40;;;;;;5038158;28;19905;-80
2021/12/13 06:50:17;;;;;;;;;;;10.10;96.40;;;;;;5038506;28;19905;-80
2021/12/13 06:52:43;;;;;;;;;;;10.10;96.40;;;;;;5037984;28;20349;-80
2021/12/13 06:55:14;;;;;;;;;;;10.10;96.40;;;;;;5038415;28;19919;-77
2021/12/13 06:57:42;;;;;;;;;;;10.10;96.40;;;;;;5039864;28;19905;-76
2021/12/13 07:00:07;;;;;;;;;;;10.00;96.30;;;;;;5046545;28;19917;-77
2021/12/13 07:02:42;;;;;;;;;;;10.00;96.30;;;;;;5038896;28;19936;-77
2021/12/13 07:05:08;;;;;;;;;;;10.00;96.30;;;;;;5037936;28;19908;-79
2021/12/13 07:07:55;;;;;;;;;;;10.00;96.40;;;;;;5037168;28;20318;-77
2021/12/13 07:10:22;;;;;;;;;;;10.00;96.40;;;;;;5037509;28;19905;-78
2021/12/13 07:12:57;;;;;;;;;;;10.00;96.40;;;;;;5038086;28;19999;-77
2021/12/13 07:15:43;;;;;;;;;;;10.00;96.40;;;;;;5037794;28;20387;-79
2021/12/13 07:18:14;;;;;;;;;;;9.90;96.30;;;;;;5036617;28;19959;-76
2021/12/13 07:20:43;;;;;;;;;;;9.90;96.30;;;;;;5037987;28;19912;-76
2021/12/13 07:23:09;;;;;;;;;;;9.90;96.30;;;;;;5037932;28;20390;-76
2021/12/13 07:25:36;;;;;;;;;;;9.80;96.30;;;;;;5037766;28;19905;-76
2021/12/13 07:28:03;;;;;;;;;;;9.80;96.30;;;;;;5037876;28;19905;-76
2021/12/13 07:30:29;;;;;;;;;;;9.80;96.20;;;;;;5037390;28;19909;-76
2021/12/13 07:32:59;;;;;;;;;;;9.80;96.20;;;;;;5037733;28;19940;-77
2021/12/13 07:35:35;;;;;;;;;;;9.80;96.20;;;;;;5037628;28;20276;-76
2021/12/13 07:38:03;;;;;;;;;;;9.80;96.10;;;;;;5037781;28;19916;-76
2021/12/13 07:40:29;;;;;;;;;;;9.70;96.00;;;;;;5037660;28;19921;-76
2021/12/13 07:42:54;;;;;;;;;;;9.70;96.00;;;;;;5037626;28;19905;-76
2021/12/13 07:45:26;;;;;;;;;;;9.70;95.90;;;;;;5037654;28;19908;-76
2021/12/13 07:47:52;;;;;;;;;;;9.70;96.00;;;;;;5027553;28;19905;-76
2021/12/13 07:50:20;;;;;;;;;;;9.70;95.90;;;;;;5037974;28;19906;-76
2021/12/13 07:52:51;;;;;;;;;;;9.70;95.90;;;;;;5041574;28;20043;-76
2021/12/13 07:55:19;;;;;;;;;;;9.70;95.90;;;;;;5041811;28;20304;-76
2021/12/13 07:57:46;;;;;;;;;;;9.60;95.90;;;;;;5041484;28;19904;-76
2021/12/13 08:00:13;;;;;;;;;;;9.60;95.90;;;;;;5041324;28;19949;-76
2021/12/13 08:02:39;;;;;;;;;;;9.60;95.80;;;;;;5041430;28;20380;-76
2021/12/13 08:05:08;;;;;;;;;;;9.60;95.80;;;;;;5041537;28;19905;-76
2021/12/13 08:07:43;;;;;;;;;;;9.60;95.80;;;;;;5041470;28;19905;-76
2021/12/13 08:10:13;;;;;;;;;;;9.60;95.70;;;;;;5041151;28;20387;-76
2021/12/13 08:12:42;;;;;;;;;;;9.60;95.70;;;;;;5041121;28;19909;-76
2021/12/13 08:15:13;;;;;;;;;;;9.60;95.60;;;;;;5041035;28;19912;-76
2021/12/13 08:17:43;;;;;;;;;;;9.60;95.60;;;;;;5041031;28;19905;-76
2021/12/13 08:20:10;;;;;;;;;;;9.60;95.50;;;;;;5041229;28;19905;-76
2021/12/13 08:22:41;;;;;;;;;;;9.60;95.40;;;;;;5041074;28;19999;-76
2021/12/13 08:25:10;;;;;;;;;;;9.60;95.40;;;;;;5040990;28;19905;-76
2021/12/13 08:27:38;;;;;;;;;;;9.50;95.20;;;;;;5041177;28;19905;-76
2021/12/13 08:30:10;;;;;;;;;;;9.50;95.10;;;;;;5040668;28;19984;-76
2021/12/13 08:32:36;;;;;;;;;;;9.50;95.10;;;;;;5041050;28;19909;-76
2021/12/13 08:35:05;;;;;;;;;;;9.60;95.10;;;;;;5040868;28;19905;-76
2021/12/13 08:37:36;;;;;;;;;;;9.60;95.00;;;;;;5041056;28;19913;-76
2021/12/13 08:40:08;;;;;;;;;;;9.50;95.00;;;;;;5040589;28;19921;-76
2021/12/13 08:42:36;;;;;;;;;;;9.50;95.00;;;;;;5040788;28;19909;-76
2021/12/13 08:45:16;;;;;;;;;;;9.50;95.00;;;;;;5040611;28;19916;-76
2021/12/13 08:47:56;;;;;;;;;;;9.60;95.00;;;;;;5030972;28;19905;-76
2021/12/13 08:50:29;;;;;;;;;;;9.60;95.00;;;;;;5028068;28;19905;-76
2021/12/13 08:52:58;;;;;;;;;;;9.60;95.00;;;;;;5040562;28;20286;-76
2021/12/13 08:55:28;;;;;;;;;;;9.60;95.00;;;;;;5040494;28;19905;-76
2021/12/13 08:57:59;;;;;;;;;;;9.60;95.00;;;;;;5040529;28;19927;-76
2021/12/13 09:00:43;;;;;;;;;;;9.60;94.90;;;;;;5040205;28;19911;-76
2021/12/13 09:03:08;;;;;;;;;;;9.60;94.90;;;;;;5039738;28;19905;-76
2021/12/13 09:05:52;;;;;;;;;;;9.60;94.90;;;;;;5040562;28;19912;-77
2021/12/13 09:08:22;;;;;;;;;;;9.60;94.90;;;;;;5040324;28;19912;-76
2021/12/13 09:10:53;;;;;;;;;;;9.60;94.70;;;;;;5039989;28;20368;-76
2021/12/13 09:13:31;;;;;;;;;;;9.60;94.60;;;;;;5040429;28;19912;-76
2021/12/13 09:15:58;;;;;;;;;;;9.60;94.60;;;;;;5039961;28;19905;-76
2021/12/13 09:18:24;;;;;;;;;;;9.60;94.50;;;;;;5040212;28;19948;-76
2021/12/13 09:20:51;;;;;;;;;;;9.60;94.50;;;;;;5040053;28;19905;-76
2021/12/13 09:23:22;;;;;;;;;;;9.60;94.80;;;;;;5040355;28;20446;-76
2021/12/13 09:25:50;;;;;;;;;;;9.60;94.50;;;;;;5039795;28;20427;-76
2021/12/13 09:28:18;;;;;;;;;;;9.60;94.50;;;;;;5038666;28;20495;-76
2021/12/13 09:30:55;;;;;;;;;;;9.60;94.50;;;;;;5039646;28;19932;-76
2021/12/13 09:33:28;;;;;;;;;;;9.60;94.50;;;;;;5039902;28;19908;-76
2021/12/13 09:36:11;;;;;;;;;;;9.60;94.50;;;;;;5039953;28;19905;-76
2021/12/13 09:38:39;;;;;;;;;;;9.60;94.60;;;;;;5039698;28;20332;-76
2021/12/13 09:41:10;;;;;;;;;;;9.60;94.60;;;;;;5039417;28;19917;-76
2021/12/13 09:43:46;;;;;;;;;;;9.70;94.60;;;;;;5039315;28;19909;-76
2021/12/13 09:46:13;;;;;;;;;;;9.70;94.60;;;;;;5039159;28;19944;-76
2021/12/13 09:48:42;;;;;;;;;;;9.70;94.60;;;;;;5028647;28;19928;-76
2021/12/13 09:51:13;;;;;;;;;;;9.70;94.60;;;;;;5039390;28;19908;-76
2021/12/13 09:53:40;;;;;;;;;;;9.70;94.60;;;;;;5039522;28;19924;-76
2021/12/13 09:56:09;;;;;;;;;;;9.80;94.60;;;;;;5039428;28;19905;-76
2021/12/13 09:58:41;;;;;;;;;;;9.80;94.50;;;;;;5039408;28;19905;-76
2021/12/13 10:01:12;;;;;;;;;;;9.80;94.40;;;;;;5038878;28;19913;-76
2021/12/13 10:03:59;;;;;;;;;;;9.70;94.30;;;;;;5039613;28;19952;-76
2021/12/13 10:06:29;;;;;;;;;;;9.70;94.30;;;;;;5039131;28;19976;-76
2021/12/13 10:09:02;;;;;;;;;;;9.70;94.20;;;;;;5038940;28;19905;-76
2021/12/13 10:11:48;;;;;;;;;;;9.70;94.20;;;;;;5039391;28;20396;-76
2021/12/13 10:14:15;;;;;;;;;;;9.70;94.10;;;;;;5037763;28;19999;-76
2021/12/13 10:16:42;;;;;;;;;;;9.80;94.10;;;;;;5037423;28;19909;-76
2021/12/13 10:19:10;;;;;;;;;;;9.80;94.10;;;;;;5038883;28;19968;-76
2021/12/13 10:21:39;;;;;;;;;;;9.70;94.10;;;;;;5038995;28;20344;-76
2021/12/13 10:24:07;;;;;;;;;;;9.70;94.20;;;;;;5037429;28;19905;-76
2021/12/13 10:26:35;;;;;;;;;;;9.70;94.20;;;;;;5039028;28;19905;-76
2021/12/13 10:29:04;;;;;;;;;;;9.80;94.30;;;;;;5038664;28;19905;-76
2021/12/13 10:31:35;;;;;;;;;;;9.70;94.20;;;;;;5038474;28;19909;-76
2021/12/13 10:34:03;;;;;;;;;;;9.80;94.30;;;;;;5038546;28;19905;-76
2021/12/13 10:36:29;;;;;;;;;;;9.80;94.10;;;;;;5038841;28;19909;-76
2021/12/13 10:38:59;;;;;;;;;;;9.80;94.10;;;;;;5038583;28;19931;-76
2021/12/13 10:41:27;;;;;;;;;;;9.80;94.00;;;;;;5038689;28;19967;-76
2021/12/13 10:43:55;;;;;;;;;;;9.80;94.10;;;;;;5038496;28;19905;-76
2021/12/13 10:46:25;;;;;;;;;;;9.80;94.00;;;;;;5038086;28;20272;-76
2021/12/13 10:48:56;;;;;;;;;;;9.70;94.00;;;;;;5026866;28;19905;-76
2021/12/13 10:51:24;;;;;;;;;;;9.70;93.80;;;;;;5038415;28;19916;-76
2021/12/13 10:53:50;;;;;;;;;;;9.70;93.80;;;;;;5038266;28;19988;-76
2021/12/13 10:56:26;;;;;;;;;;;9.70;93.80;;;;;;5038307;28;19912;-76
2021/12/13 10:58:55;;;;;;;;;;;9.70;93.90;;;;;;5038424;28;19909;-76
2021/12/13 11:01:26;;;;;;;;;;;9.70;94.00;;;;;;5036858;28;19934;-76
2021/12/13 11:03:53;;;;;;;;;;;9.60;94.10;;;;;;5038273;28;19948;-76
2021/12/13 11:06:21;;;;;;;;;;;9.70;94.00;;;;;;5038092;28;19905;-76
2021/12/13 11:08:48;;;;;;;;;;;9.60;94.00;;;;;;5038082;28;19992;-76
2021/12/13 11:11:19;;;;;;;;;;;9.70;94.00;;;;;;5038005;28;20004;-76
2021/12/13 11:13:46;;;;;;;;;;;9.70;94.00;;;;;;5038031;28;19904;-76
2021/12/13 11:16:13;;;;;;;;;;;9.70;94.00;;;;;;5037655;28;19909;-76
2021/12/13 11:18:39;;;;;;;;;;;9.60;94.00;;;;;;5037922;28;20351;-76
2021/12/13 11:21:10;;;;;;;;;;;9.60;93.90;;;;;;5038073;28;19959;-76
2021/12/13 11:23:36;;;;;;;;;;;9.60;93.90;;;;;;5037893;28;19905;-76
2021/12/13 11:26:05;;;;;;;;;;;9.60;94.00;;;;;;5037697;28;19955;-76
2021/12/13 11:28:32;;;;;;;;;;;9.60;94.00;;;;;;5037953;28;19920;-76
2021/12/13 11:30:59;;;;;;;;;;;9.60;94.00;;;;;;5037945;28;19916;-75
2021/12/13 11:33:37;;;;;;;;;;;9.60;94.00;;;;;;5037791;28;19912;-76
2021/12/13 11:36:18;;;;;;;;;;;9.60;94.10;;;;;;5036839;28;19905;-76
2021/12/13 11:39:03;;;;;;;;;;;9.50;94.10;;;;;;5037633;28;19931;-76
2021/12/13 11:41:49;;;;;;;;;;;9.60;94.10;;;;;;5037455;28;19920;-76
2021/12/13 11:44:30;;;;;;;;;;;9.60;94.10;;;;;;5037001;28;20000;-76
2021/12/13 11:47:23;;;;;;;;;;;9.60;94.10;;;;;;5034112;28;20024;-76
2021/12/13 11:49:52;;;;;;;;;;;9.60;94.00;;;;;;5034677;28;19904;-76
2021/12/13 11:52:32;;;;;;;;;;;9.60;94.00;;;;;;5036220;28;20006;-76
2021/12/13 11:55:19;;;;;;;;;;;9.60;94.00;;;;;;5037402;28;19905;-76
2021/12/13 11:58:02;;;;;;;;;;;9.60;94.00;;;;;;5037831;28;19995;-76
2021/12/13 12:00:43;;;;;;;;;;;9.60;93.90;;;;;;5037421;28;19905;-76
2021/12/13 12:03:27;;;;;;;;;;;9.70;94.00;;;;;;5037383;28;19905;-76
2021/12/13 12:06:13;;;;;;;;;;;9.70;94.10;;;;;;5037411;28;19956;-76
2021/12/13 12:08:41;;;;;;;;;;;9.70;94.00;;;;;;5026277;28;19912;-76
2021/12/13 12:11:13;;;;;;;;;;;9.70;93.90;;;;;;5037192;28;19924;-76
2021/12/13 12:13:39;;;;;;;;;;;9.70;93.90;;;;;;5037563;28;19905;-76
2021/12/13 12:16:06;;;;;;;;;;;9.80;93.80;;;;;;5035821;28;20338;-76
2021/12/13 12:18:33;;;;;;;;;;;9.80;93.80;;;;;;5037623;28;19931;-76
2021/12/13 12:21:17;;;;;;;;;;;9.80;93.80;;;;;;5037477;28;20385;-76
2021/12/13 12:23:43;;;;;;;;;;;9.80;93.80;;;;;;5037499;28;19960;-76
2021/12/13 12:26:09;;;;;;;;;;;9.80;93.90;;;;;;5037377;28;19959;-76
2021/12/13 12:28:36;;;;;;;;;;;9.80;93.80;;;;;;5037401;28;19905;-76
2021/12/13 12:31:02;;;;;;;;;;;9.80;93.60;;;;;;5036979;28;19967;-76
2021/12/13 12:33:29;;;;;;;;;;;9.80;93.50;;;;;;5037221;28;19905;-76
2021/12/13 12:35:56;;;;;;;;;;;9.80;93.40;;;;;;5036066;28;19905;-76
2021/12/13 12:38:33;;;;;;;;;;;9.80;93.50;;;;;;5039019;28;19963;-76
2021/12/13 12:41:11;;;;;;;;;;;9.80;93.40;;;;;;5040609;28;19924;-76
2021/12/13 12:43:40;;;;;;;;;;;9.80;93.40;;;;;;5039479;28;19927;-76
2021/12/13 12:46:08;;;;;;;;;;;9.80;93.40;;;;;;5040671;28;19905;-75
2021/12/13 12:48:35;;;;;;;;;;;9.80;93.50;;;;;;5029574;28;19905;-76
2021/12/13 12:51:01;;;;;;;;;;;9.80;93.60;;;;;;5039651;28;19913;-76
2021/12/13 12:53:29;;;;;;;;;;;9.80;93.60;;;;;;5040539;28;19911;-76
2021/12/13 12:55:59;;;;;;;;;;;9.80;93.60;;;;;;5040577;28;19912;-76
2021/12/13 12:58:27;;;;;;;;;;;9.80;93.60;;;;;;5040560;28;19955;-76
2021/12/13 13:00:54;;;;;;;;;;;9.80;93.70;;;;;;5040190;28;19928;-76
2021/12/13 13:03:22;;;;;;;;;;;9.80;93.60;;;;;;5040437;28;19905;-76
2021/12/13 13:05:48;;;;;;;;;;;9.80;93.50;;;;;;5040344;28;19905;-75
2021/12/13 13:08:25;;;;;;;;;;;9.90;93.50;;;;;;5040413;28;19996;-76
2021/12/13 13:10:52;;;;;;;;;;;9.90;93.50;;;;;;5040015;28;19918;-76
2021/12/13 13:13:18;;;;;;;;;;;9.90;93.60;;;;;;5040380;28;19905;-76
2021/12/13 13:15:52;;;;;;;;;;;9.90;93.50;;;;;;5039846;28;19905;-76
2021/12/13 13:18:25;;;;;;;;;;;9.90;93.50;;;;;;5040423;28;19905;-76
2021/12/13 13:20:51;;;;;;;;;;;9.90;93.50;;;;;;5040020;28;19905;-76
2021/12/13 13:23:18;;;;;;;;;;;9.90;93.50;;;;;;5040229;28;20314;-76
2021/12/13 13:25:48;;;;;;;;;;;9.90;93.40;;;;;;5039854;28;19912;-76
2021/12/13 13:28:19;;;;;;;;;;;9.90;93.40;;;;;;5039967;28;20327;-75
2021/12/13 13:31:03;;;;;;;;;;;9.90;93.40;;;;;;5039454;28;19950;-76
2021/12/13 13:33:37;;;;;;;;;;;9.90;93.30;;;;;;5038501;28;19909;-76
2021/12/13 13:36:05;;;;;;;;;;;9.90;93.20;;;;;;5040102;28;19912;-76
2021/12/13 13:38:31;;;;;;;;;;;9.90;93.40;;;;;;5038376;28;19909;-76
2021/12/13 13:40:57;;;;;;;;;;;9.90;93.60;;;;;;5039565;28;20402;-76
2021/12/13 13:43:23;;;;;;;;;;;9.90;93.50;;;;;;5039611;28;19951;-76
2021/12/13 13:45:51;;;;;;;;;;;9.90;93.60;;;;;;5039628;28;19952;-76
2021/12/13 13:48:27;;;;;;;;;;;10.00;93.70;;;;;;5027980;28;19916;-76
2021/12/13 13:50:57;;;;;;;;;;;10.00;93.70;;;;;;5038499;28;19909;-76
2021/12/13 13:53:25;;;;;;;;;;;10.00;93.60;;;;;;5039705;28;19911;-76
2021/12/13 13:55:55;;;;;;;;;;;10.00;93.60;;;;;;5039284;28;19909;-76
2021/12/13 13:58:23;;;;;;;;;;;10.00;93.60;;;;;;5039432;28;20353;-76
2021/12/13 14:00:54;;;;;;;;;;;10.00;93.50;;;;;;5039080;28;19905;-76
2021/12/13 14:03:25;;;;;;;;;;;9.90;93.40;;;;;;5039239;28;19912;-76
2021/12/13 14:05:54;;;;;;;;;;;9.90;93.40;;;;;;5039256;28;19905;-76
2021/12/13 14:08:22;;;;;;;;;;;9.90;93.50;;;;;;5039328;28;19913;-76
2021/12/13 14:10:48;;;;;;;;;;;9.90;93.50;;;;;;5037853;28;19905;-76
2021/12/13 14:13:14;;;;;;;;;;;9.90;93.50;;;;;;5039116;28;20352;-76
2021/12/13 14:15:42;;;;;;;;;;;9.90;93.50;;;;;;5037594;28;20352;-76
2021/12/13 14:18:14;;;;;;;;;;;9.80;93.50;;;;;;5037968;28;19904;-76
2021/12/13 14:20:44;;;;;;;;;;;9.80;93.60;;;;;;5037816;28;20256;-76
2021/12/13 14:23:13;;;;;;;;;;;9.80;93.70;;;;;;5038935;28;19905;-75
2021/12/13 14:25:40;;;;;;;;;;;9.80;93.70;;;;;;5038675;28;19999;-76
2021/12/13 14:28:07;;;;;;;;;;;9.80;93.80;;;;;;5039153;28;19905;-76
2021/12/13 14:30:45;;;;;;;;;;;9.80;93.90;;;;;;5038344;28;19905;-76
2021/12/13 14:33:25;;;;;;;;;;;9.80;94.00;;;;;;5038743;28;19964;-76
2021/12/13 14:36:00;;;;;;;;;;;9.80;94.00;;;;;;5027145;28;20396;-76
2021/12/13 14:38:26;;;;;;;;;;;9.80;93.90;;;;;;5038662;28;20374;-76
2021/12/13 14:40:53;;;;;;;;;;;9.80;93.90;;;;;;5038238;28;19924;-75
2021/12/13 14:43:20;;;;;;;;;;;9.80;93.90;;;;;;5038580;28;19963;-76
2021/12/13 14:45:46;;;;;;;;;;;9.80;93.90;;;;;;5038176;28;19905;-76
2021/12/13 14:48:15;;;;;;;;;;;9.70;93.80;;;;;;5027969;28;20394;-76
2021/12/13 14:50:46;;;;;;;;;;;9.70;93.80;;;;;;5038336;28;20356;-76
2021/12/13 14:53:19;;;;;;;;;;;9.70;93.90;;;;;;5038217;28;19954;-76